Aviation Digital Data Service (ADDS)

Output produced by TAFs form (1302 UTC 20 October 2014)
found at http://aviationweather.gov/adds/tafs/
 
KTCS 201120Z 2012/2112 02006KT P6SM SCT030 BKN060 
     FM202000 09010KT P6SM VCTS SCT030 BKN050CB 
     TEMPO 2020/2024 2SM TSRA BKN030CB 
     FM210300 31006KT P6SM BKN050